Latest Coastal Weather Observations for Ballina

IDN60701

Issued at 9:21 am EDT Thursday 2 April 2015 (issued every 10 minutes, with the page automatically refreshed every 10 minutes)

About coastal observations | Map of coastal stations | Coastal observations for NSW | Marine services | Other Formats
Station Details ID: 058198 Name: BALLINA AIRPORT AWS Lat: -28.84 Lon: 153.56 Height: 1.3 m
Data from the previous 72 hours. | See also: Recent months at Ballina
Date/Time
EDT
Temp

°C
Wind Pressure Rain
since 9am
mm
Weather Cloud Vis
km
Sea
Height
m
Swell
Dir
 
Speed
knots
Gust
knots
hPa Trend Height
m
Period
s
Dir
02/09:16am 20.3 W 3 5 1020.6 - 0.0 - Partly cloudy 10 - - - -
02/09:00am 20.5 W 5 6 1020.5 - 4.8 Rain Cloudy 5 - - - -
02/08:58am 20.2 WSW 5 7 1020.4 - 4.8 - Partly cloudy 5 - - - -
02/08:30am 19.7 WSW 4 6 1020.1 - 4.4 - Partly cloudy 10 - - - -
02/08:00am 19.5 WSW 4 6 1019.8 - 4.4 - Partly cloudy 10 - - - -
02/07:30am 19.3 WSW 5 6 1019.4 - 4.4 - Partly cloudy 10 - - - -
02/07:00am 19.1 W 5 6 1019.1 - 4.4 - Partly cloudy 10 - - - -
02/06:30am 19.4 W 6 7 1019.0 - 4.4 - Partly cloudy 10 - - - -
02/06:00am 19.6 S 8 13 1018.8 - 4.4 Recent precip. Cloudy 10 - - - -
02/05:58am 19.5 S 8 13 1018.7 - 4.4 - Partly cloudy 10 - - - -
02/05:35am 19.5 SW 2 5 1018.7 - 3.6 - Partly cloudy 4 - - - -
02/05:30am 19.5 SW 1 3 1018.8 - 2.8 - Partly cloudy 10 - - - -
02/05:00am 19.6 SW 5 6 1018.5 - 2.6 - Partly cloudy 10 - - - -
02/04:36am 19.6 WNW 3 5 1018.8 - 0.8 - Partly cloudy 5 - - - -
02/04:30am 19.5 NW 5 7 1018.8 - 0.6 - Partly cloudy 7 - - - -
02/04:00am 19.4 NW 5 9 1019.0 - 0.2 - Partly cloudy 10 - - - -
02/03:30am 19.4 W 4 5 1019.0 - 0.2 - Partly cloudy 10 - - - -
02/03:00am 19.3 W 3 5 1019.4 - 0.2 - Cloudy 10 - - - -
02/02:30am 19.8 W 5 6 1019.9 - 0.2 - Partly cloudy 10 - - - -
02/02:00am 20.1 W 4 5 1020.3 - 0.2 - Partly cloudy 10 - - - -
02/01:30am 20.6 W 4 5 1020.6 - 0.2 - Partly cloudy 10 - - - -
02/01:00am 21.5 NE 6 8 1021.0 - 0.2 - Partly cloudy 10 - - - -
02/12:30am 21.1 ESE 7 11 1021.2 - 0.0 - Partly cloudy 10 - - - -
02/12:00am 19.5 WSW 6 7 1021.1 - 0.0 - Partly cloudy 26 - - - -
 
Date/Time
EDT
Temp

°C
Wind Pressure Rain
since 9am
mm
Weather Cloud Vis
km
Sea
Height
m
Swell
Dir
 
Speed
knots
Gust
knots
hPa Trend Height
m
Period
s
Dir
01/11:30pm 19.1 WSW 5 6 1021.4 - 0.0 - Partly cloudy 10 - - - -
01/11:00pm 19.6 WSW 7 9 1021.5 - 0.0 - Partly cloudy 10 - - - -
01/10:30pm 20.0 W 4 5 1021.8 - 0.0 - Partly cloudy 10 - - - -
01/10:00pm 21.2 CALM 0 0 1021.8 - 0.0 - Partly cloudy 10 - - - -
01/09:30pm 22.0 ESE 6 10 1021.6 - 0.0 - Partly cloudy 10 - - - -
01/09:00pm 21.7 ENE 7 9 1021.4 - 0.0 - Cloudy 10 - - - -
01/08:30pm 22.1 ESE 8 13 1021.1 - 0.0 - Partly cloudy 10 - - - -
01/08:00pm 22.0 ESE 4 6 1020.7 - 0.0 - Partly cloudy 10 - - - -
01/07:30pm 22.4 E 6 8 1020.5 - 0.0 - Partly cloudy 10 - - - -
01/07:00pm 22.3 E 6 8 1020.3 - 0.0 - Partly cloudy 10 - - - -
01/06:30pm 23.0 E 7 10 1020.2 - 0.0 - Partly cloudy 10 - - - -
01/06:00pm 23.4 E 8 10 1020.0 - 0.0 - Mostly clear 10 - - - -
01/05:30pm 24.1 E 7 9 1019.9 - 0.0 - Partly cloudy 10 - - - -
01/05:00pm 24.2 E 8 13 1019.8 - 0.0 - Partly cloudy 10 - - - -
01/04:30pm 24.7 E 9 13 1019.9 - 0.0 - - 10 - - - -
01/04:00pm 24.6 E 9 14 1020.0 - 0.0 - Partly cloudy 10 - - - -
01/03:30pm 24.8 E 10 14 1020.2 - 0.0 - Partly cloudy 10 - - - -
01/03:00pm 25.1 E 11 16 1020.5 - 0.0 - Mostly clear 10 - - - -
01/02:30pm 25.6 E 12 16 1020.8 - 0.0 - Partly cloudy 10 - - - -
01/02:00pm 25.3 E 11 15 1021.0 - 0.0 - Partly cloudy 10 - - - -
01/01:30pm 25.9 E 12 17 1021.5 - 0.0 - Partly cloudy 10 - - - -
01/01:00pm 26.1 ENE 13 16 1021.9 - 0.0 - - 10 - - - -
01/12:30pm 26.1 E 11 15 1022.4 - 0.0 - Partly cloudy 10 - - - -
01/12:00pm 23.7 S 4 6 1023.1 - 0.0 - Partly cloudy 10 - - - -
01/11:30am 22.9 SSW 7 9 1023.5 - 0.0 - Partly cloudy 10 - - - -
01/11:00am 21.5 SW 7 9 1023.8 - 0.0 - Partly cloudy 10 - - - -
01/10:30am 20.6 SW 6 9 1023.9 - 0.0 - Partly cloudy 10 - - - -
01/10:00am 20.7 SW 6 8 1024.1 - 0.0 - - 10 - - - -
01/09:30am 19.8 WNW 4 7 1024.0 - 0.0 - Partly cloudy 10 - - - -
01/09:00am 19.4 W 4 5 1023.9 - 55.8 Recent precip. Mostly cloudy 10 - - - -
01/08:30am 19.1 NW 7 9 1023.7 - 55.8 - Partly cloudy 10 - - - -
01/08:00am 19.1 NW 5 7 1023.2 - 55.6 - Cloudy 10 - - - -
01/07:30am 18.8 WSW 5 7 1022.9 - 55.2 - Partly cloudy 7 - - - -
01/07:25am 18.8 W 4 7 1022.9 - 55.2 - Partly cloudy 7 - - - -
01/07:00am 18.7 WNW 6 7 1022.8 - 53.6 - Partly cloudy 6 - - - -
01/06:30am 18.6 SE 3 6 1022.5 - 51.6 - Partly cloudy 4 - - - -
01/06:03am 19.2 SSW 8 10 1022.3 - 45.4 - Partly cloudy 5 - - - -
01/06:00am 19.2 SSW 7 10 1021.9 - 44.8 Rain Cloudy 7 - - - -
01/05:47am 19.3 W 8 11 1021.8 - 44.2 - Partly cloudy 5 - - - -
01/05:44am 19.3 WNW 8 11 1021.6 - 43.6 - Partly cloudy 8 - - - -
01/05:36am 19.2 WNW 7 8 1021.7 - 43.2 - Partly cloudy 10 - - - -
01/05:30am 19.3 W 5 7 1021.7 - 43.2 - Partly cloudy 7 - - - -
01/05:09am 19.4 SSW 6 8 1021.6 - 41.8 - Partly cloudy 5 - - - -
01/05:00am 19.5 WSW 4 5 1021.5 - 41.4 - Partly cloudy 10 - - - -
01/04:30am 19.5 N 3 4 1021.4 - 41.4 - Partly cloudy 10 - - - -
01/04:00am 19.5 N 3 5 1021.5 - 41.2 - Partly cloudy 10 - - - -
01/03:53am 19.4 NNW 4 6 1021.6 - 41.2 - Partly cloudy 10 - - - -
01/03:40am 19.3 N 5 6 1021.5 - 41.2 - Partly cloudy 10 - - - -
01/03:30am 19.3 NNW 5 6 1021.5 - 41.2 - Partly cloudy 10 - - - -
01/03:00am 19.4 N 3 4 1021.7 - 41.0 Recent precip. Mostly cloudy 10 - - - -
01/02:30am 19.7 NNW 3 4 1022.0 - 40.8 - Partly cloudy 10 - - - -
01/02:06am 19.8 NNW 4 8 1022.3 - 40.8 - Partly cloudy 10 - - - -
01/02:02am 19.7 NNW 5 9 1022.3 - 40.8 - Partly cloudy 10 - - - -
01/02:00am 19.7 N 4 9 1022.3 - 40.8 - Partly cloudy 10 - - - -
01/01:55am 19.8 E 3 8 1022.4 - 40.8 - Partly cloudy 10 - - - -
01/01:52am 19.7 SE 3 7 1022.4 - 40.8 - Partly cloudy 4 - - - -
01/01:30am 19.8 E 6 11 1023.1 - 34.4 - Partly cloudy 2 - - - -
01/01:00am 18.9 E 7 15 1023.2 - 25.8 - Partly cloudy 0.7 - - - -
01/12:56am 19.1 ENE 6 15 1023.4 - 22.8 - Partly cloudy 2 - - - -
01/12:54am 19.5 NNE 6 15 1023.6 - 22.0 - Partly cloudy 5 - - - -
01/12:30am 19.5 NW 5 7 1023.0 - 19.8 - Partly cloudy 10 - - - -
01/12:00am 19.8 N 7 9 1023.1 - 19.0 Rain Cloudy 7 - - - -
 
Date/Time
EDT
Temp

°C
Wind Pressure Rain
since 9am
mm
Weather Cloud Vis
km
Sea
Height
m
Swell
Dir
 
Speed
knots
Gust
knots
hPa Trend Height
m
Period
s
Dir
31/11:42pm 20.0 NNE 9 15 1023.2 - 18.2 - Partly cloudy 8 - - - -
31/11:30pm 20.0 NNE 9 13 1023.2 - 17.8 - Partly cloudy 2 - - - -
31/11:17pm 19.9 SW 3 6 1023.1 - 15.4 - Partly cloudy 5 - - - -
31/11:00pm 19.7 SW 6 9 1023.2 - 14.8 - Partly cloudy 10 - - - -
31/10:30pm 19.5 SW 5 7 1023.4 - 14.8 - Partly cloudy 10 - - - -
31/10:29pm 19.5 SW 5 7 1023.5 - 14.8 - Partly cloudy 10 - - - -
31/10:09pm 19.6 SSW 5 9 1023.7 - 14.0 - Partly cloudy 5 - - - -
31/10:00pm 19.8 WSW 6 8 1023.4 - 13.0 - Partly cloudy 10 - - - -
31/09:56pm 19.8 WSW 7 8 1023.4 - 13.0 - Partly cloudy 10 - - - -
31/09:44pm 19.8 SSW 7 10 1023.7 - 13.0 - Partly cloudy 10 - - - -
31/09:30pm 19.9 WSW 6 8 1023.6 - 13.0 - Partly cloudy 10 - - - -
31/09:00pm 20.3 W 4 5 1023.6 - 12.8 - Cloudy 10 - - - -
31/08:44pm 20.3 NW 5 6 1023.4 - 12.8 - Partly cloudy 10 - - - -
31/08:30pm 20.4 N 4 6 1023.3 - 12.8 - Partly cloudy 10 - - - -
31/08:19pm 20.2 N 5 7 1023.1 - 12.8 - Partly cloudy 10 - - - -
31/08:10pm 20.2 NNW 6 9 1023.0 - 12.8 - Partly cloudy 8 - - - -
31/08:01pm 20.1 N 6 8 1022.9 - 12.8 - Partly cloudy 5 - - - -
31/08:00pm 20.2 N 6 8 1022.9 - 12.8 - Partly cloudy 6 - - - -
31/07:30pm 20.2 SW 1 4 1022.4 - 12.2 - Partly cloudy 10 - - - -
31/07:00pm 19.8 W 4 5 1021.9 - 12.2 - Cloudy 10 - - - -
31/06:38pm 20.0 WNW 5 6 1021.9 - 12.2 - Partly cloudy 10 - - - -
31/06:30pm 20.1 WNW 4 5 1021.8 - 12.2 - Partly cloudy 8 - - - -
31/06:10pm 20.7 NW 6 10 1021.8 - 9.6 - Partly cloudy 4 - - - -
31/06:00pm 21.2 ESE 2 5 1021.5 - 8.0 Rain Cloudy 10 - - - -
31/05:51pm 20.8 SE 3 5 1021.5 - 7.8 - Partly cloudy 10 - - - -
31/05:33pm 21.6 SE 10 15 1021.3 - 7.6 - Partly cloudy 5 - - - -
31/05:30pm 23.0 SSE 9 15 1021.2 - 7.2 - Partly cloudy 10 - - - -
31/05:00pm 24.5 SSE 7 9 1021.3 - 6.8 - Partly cloudy 10 - - - -
31/04:30pm 23.9 SSE 7 9 1021.3 - 6.8 - Cloudy 10 - - - -
31/04:00pm 24.0 SSE 7 10 1021.2 - 6.8 - Partly cloudy 10 - - - -
31/03:30pm 24.4 SSE 7 9 1021.3 - 6.8 - Partly cloudy 10 - - - -
31/03:00pm 24.4 SSE 7 9 1021.6 - 6.8 - Mostly cloudy 10 - - - -
31/02:30pm 24.7 ESE 2 6 1021.9 - 6.8 - Cloudy 10 - - - -
31/02:00pm 23.9 CALM 0 3 1022.0 - 6.8 - Cloudy 10 - - - -
31/01:30pm 21.8 SW 4 5 1022.5 - 6.8 - Cloudy 10 - - - -
31/01:00pm 21.2 WSW 7 9 1022.9 - 6.8 - Partly cloudy 10 - - - -
31/12:30pm 20.0 W 7 9 1023.7 - 6.8 - Partly cloudy 10 - - - -
31/12:21pm 19.3 WNW 5 6 1024.0 - 6.8 - Partly cloudy 10 - - - -
31/12:00pm 19.6 E 7 11 1024.6 - 6.2 Rain Cloudy 2 - - - -
31/11:30am 20.1 ESE 9 12 1024.7 - 1.0 - Partly cloudy 4 - - - -
31/11:06am 20.5 ESE 10 15 1024.5 - 0.0 - Partly cloudy 5 - - - -
31/11:00am 20.8 SE 11 15 1024.5 - 0.0 - Partly cloudy 10 - - - -
31/10:30am 21.9 SSE 10 15 1024.5 - 0.0 - Partly cloudy 10 - - - -
31/10:00am 22.0 SSW 5 10 1023.9 - 0.0 - Partly cloudy 10 - - - -
31/09:30am 21.0 SSW 3 5 1023.7 - 0.0 - Partly cloudy 10 - - - -
31/09:00am 19.9 W 5 6 1023.4 - 0.0 - Cloudy 10 - - - -
31/08:30am 19.6 SW 1 3 1022.9 - 0.0 - Partly cloudy 10 - - - -
31/08:00am 19.0 CALM 0 0 1022.7 - 0.0 - Partly cloudy 10 - - - -
31/07:30am 18.5 CALM 0 0 1022.2 - 0.0 - - 10 - - - -
31/07:00am 18.3 WSW 2 4 1022.0 - 0.0 - - 10 - - - -
31/06:30am 18.2 CALM 0 0 1021.9 - 0.0 - Partly cloudy 10 - - - -
31/06:00am 18.2 CALM 0 0 1022.0 - 0.0 - Cloudy 10 - - - -
31/05:30am 18.1 CALM 0 0 1021.9 - 0.0 - Cloudy 10 - - - -
31/05:00am 18.0 CALM 0 0 1021.7 - 0.0 - Cloudy 10 - - - -
31/04:30am 17.7 CALM 0 0 1021.7 - 0.0 - Cloudy 10 - - - -
31/04:00am 17.8 CALM 0 0 1022.0 - 0.0 - Cloudy 10 - - - -
31/03:30am 17.5 CALM 0 0 1022.0 - 0.0 - Partly cloudy 10 - - - -
31/03:00am 17.6 CALM 0 0 1022.1 - 0.0 - Cloudy 10 - - - -
31/02:30am 17.5 CALM 0 0 1022.3 - 0.0 - - 10 - - - -
31/02:00am 18.2 WNW 2 3 1022.6 - 0.0 - - 10 - - - -
31/01:30am 18.3 CALM 0 0 1022.8 - 0.0 - - 10 - - - -
31/01:00am 18.4 CALM 0 0 1023.0 - 0.0 - - 10 - - - -
31/12:30am 18.5 CALM 0 0 1023.1 - 0.0 - - 10 - - - -
31/12:00am 18.6 CALM 0 0 1023.3 - 0.0 - Cloudy 10 - - - -
 
Date/Time
EDT
Temp

°C
Wind Pressure Rain
since 9am
mm
Weather Cloud Vis
km
Sea
Height
m
Swell
Dir
 
Speed
knots
Gust
knots
hPa Trend Height
m
Period
s
Dir
30/11:30pm 18.9 CALM 0 0 1023.5 - 0.0 - - 10 - - - -
30/11:00pm 19.1 CALM 0 0 1023.6 - 0.0 - - 10 - - - -
30/10:30pm 19.2 CALM 0 0 1023.7 - 0.0 - - 10 - - - -
30/10:00pm 19.3 CALM 0 0 1023.7 - 0.0 - - 10 - - - -
30/09:30pm 19.7 WNW 1 3 1023.6 - 0.0 - - 10 - - - -
30/09:00pm 20.5 NNE 3 4 1023.5 - 0.0 - Partly cloudy 10 - - - -
30/08:30pm 20.7 NNE 3 4 1023.2 - 0.0 - Partly cloudy 10 - - - -
30/08:00pm 21.5 NE 5 6 1023.1 - 0.0 - - 10 - - - -
30/07:30pm 21.6 NE 8 10 1022.5 - 0.0 - - 10 - - - -
30/07:00pm 20.8 NE 7 8 1022.4 - 0.0 - - 10 - - - -
30/06:30pm 22.3 NE 6 8 1022.2 - 0.0 - - 10 - - - -
30/06:00pm 23.4 NE 7 9 1021.8 - 0.0 - Partly cloudy 10 - - - -
30/05:30pm 24.0 NE 7 10 1021.6 - 0.0 - Partly cloudy 10 - - - -
30/05:00pm 25.0 NE 9 12 1021.3 - 0.0 - - 10 - - - -
30/04:30pm 25.2 NNE 10 13 1021.1 - 0.0 - Partly cloudy 10 - - - -
30/04:00pm 25.4 NE 9 12 1021.3 - 0.0 - Partly cloudy 10 - - - -
30/03:30pm 25.1 NNE 9 13 1021.2 - 0.0 - Partly cloudy 10 - - - -
30/03:00pm 25.5 NE 11 15 1021.2 - 0.0 - Cloudy 10 - - - -
30/02:30pm 25.1 NE 11 15 1021.3 - 0.0 - - 10 - - - -
30/02:00pm 25.1 NE 11 16 1021.7 - 0.0 - - 10 - - - -
30/01:30pm 25.5 NNE 9 12 1022.3 - 0.0 - - 10 - - - -
30/01:00pm 24.7 NNE 9 13 1022.6 - 0.0 - - 10 - - - -
30/12:30pm 24.8 NE 10 15 1023.1 - 0.0 - - 10 - - - -
30/12:00pm 25.4 NNE 8 15 1023.3 - 0.0 - Cloudy 10 - - - -
30/11:30am 25.1 NNE 6 9 1024.0 - 0.0 - Partly cloudy 10 - - - -
30/11:00am 25.0 N 3 5 1024.0 - 0.0 - Partly cloudy 10 - - - -
30/10:30am 24.3 NNW 4 7 1024.4 - 0.0 - Partly cloudy 10 - - - -
30/10:00am 23.8 NNW 3 6 1024.1 - 0.0 - Partly cloudy 10 - - - -
30/09:30am 22.4 NW 4 6 1024.2 - 0.0 - Partly cloudy 10 - - - -

Other Formats:

Comma delimited format used in spreadsheet applications
http://www.bom.gov.au/fwo/IDN60701/IDN60701.94596.axf

JavaScript Object Notation format (JSON) in row-major order
http://www.bom.gov.au/fwo/IDN60701/IDN60701.94596.json